createdAt,value
2023-04-12T00:01:20.177Z,97320.41
2023-04-12T00:05:27.285Z,97315.16
2023-04-12T00:09:30.356Z,97301.16
2023-04-12T00:13:32.397Z,97295.94
2023-04-12T00:17:34.437Z,97287.47
2023-04-12T00:21:36.478Z,97276.25
2023-04-12T00:25:39.324Z,97271.94
2023-04-12T00:29:41.375Z,97273.63
2023-04-12T00:33:44.741Z,97273.75
2023-04-12T00:37:46.793Z,97259.81
2023-04-12T00:41:48.940Z,97249.59
2023-04-12T00:45:51.102Z,97250.53
2023-04-12T00:49:53.115Z,97260.22
2023-04-12T00:53:59.625Z,97263.63
2023-04-12T00:58:01.677Z,97255.06
2023-04-12T01:02:03.917Z,97256.13
2023-04-12T01:06:16.503Z,97256.56
2023-04-12T01:10:32.040Z,97247.28
2023-04-12T01:14:58.738Z,97243.03
2023-04-12T01:19:12.526Z,97228.34
2023-04-12T01:23:58.947Z,97225.78
2023-04-12T01:28:04.294Z,97210.56
2023-04-12T01:32:08.351Z,97207.50
2023-04-12T01:36:18.923Z,97201.56
2023-04-12T01:40:21.216Z,97194.78
2023-04-12T01:44:23.346Z,97184.63
2023-04-12T01:48:25.426Z,97178.94
2023-04-12T01:52:35.226Z,97168.84
2023-04-12T01:56:40.524Z,97159.41
2023-04-12T02:00:45.052Z,97158.00
2023-04-12T02:04:47.814Z,97160.28
2023-04-12T02:08:49.932Z,97148.16
2023-04-12T02:12:52.070Z,97148.00
2023-04-12T02:16:54.784Z,97147.06
2023-04-12T02:20:56.955Z,97139.41
2023-04-12T02:24:59.864Z,97130.66
2023-04-12T02:29:01.854Z,97121.03
2023-04-12T02:33:06.135Z,97106.50
2023-04-12T02:37:13.622Z,97090.13
2023-04-12T02:41:19.575Z,97074.09
2023-04-12T02:45:23.087Z,97084.75
2023-04-12T02:49:26.315Z,97080.56
2023-04-12T02:53:29.469Z,97082.66
2023-04-12T02:57:45.914Z,97075.78
2023-04-12T03:01:50.698Z,97061.28
2023-04-12T03:06:02.563Z,97045.00
2023-04-12T03:10:07.153Z,97033.66
2023-04-12T03:14:12.795Z,97019.88
2023-04-12T03:18:17.249Z,97020.81
2023-04-12T03:22:23.381Z,97016.56
2023-04-12T03:26:30.293Z,97014.59
2023-04-12T03:30:35.401Z,97002.78
2023-04-12T03:34:37.577Z,97005.44
2023-04-12T03:38:47.132Z,96994.16
2023-04-12T03:42:50.041Z,96982.03
2023-04-12T03:46:52.495Z,96983.66
2023-04-12T03:50:54.713Z,96969.59
2023-04-12T03:54:58.198Z,96956.56
2023-04-12T03:59:02.644Z,96952.41
2023-04-12T04:03:05.569Z,96949.09
2023-04-12T04:07:16.016Z,96937.19
2023-04-12T04:11:20.618Z,96925.97
2023-04-12T04:15:27.126Z,96913.94
2023-04-12T04:19:29.934Z,96904.50
2023-04-12T04:23:38.579Z,96901.28
2023-04-12T04:27:44.651Z,96893.31
2023-04-12T04:31:47.266Z,96880.25
2023-04-12T04:35:52.203Z,96883.78
2023-04-12T04:40:14.449Z,96868.75
2023-04-12T04:44:18.217Z,96861.59
2023-04-12T04:48:29.987Z,96858.25
2023-04-12T04:52:32.013Z,96855.84
2023-04-12T04:56:39.622Z,96842.81
2023-04-12T05:00:44.864Z,96837.59
2023-04-12T05:04:47.581Z,96818.88
2023-04-12T05:08:53.326Z,96803.88
2023-04-12T05:12:56.777Z,96811.78
2023-04-12T05:16:59.790Z,96800.00
2023-04-12T05:21:05.880Z,96792.34
2023-04-12T05:25:08.326Z,96783.66
2023-04-12T05:29:16.623Z,96772.22
2023-04-12T05:33:19.071Z,96771.22
2023-04-12T05:37:22.445Z,96770.28
2023-04-12T05:41:24.455Z,96776.94
2023-04-12T05:45:26.510Z,96760.53
2023-04-12T05:49:31.196Z,96753.78
2023-04-12T05:53:34.841Z,96746.72
2023-04-12T05:57:39.649Z,96750.69
2023-04-12T06:01:42.781Z,96733.38
2023-04-12T06:05:44.939Z,96723.53
2023-04-12T06:09:47.363Z,96718.16
2023-04-12T06:13:49.439Z,96712.19
2023-04-12T06:17:51.889Z,96703.09
2023-04-12T06:21:54.062Z,96701.16
2023-04-12T06:25:56.473Z,96681.84
2023-04-12T06:29:58.836Z,96684.22
2023-04-12T06:34:01.206Z,96673.25
2023-04-12T06:38:03.777Z,96671.91
2023-04-12T06:42:05.909Z,96682.41
2023-04-12T06:46:08.988Z,96673.91
2023-04-12T06:50:11.228Z,96668.03
2023-04-12T06:54:14.152Z,96657.72
2023-04-12T06:58:16.269Z,96648.97
2023-04-12T07:02:18.806Z,96641.09
2023-04-12T07:06:25.751Z,96638.41
2023-04-12T07:10:28.146Z,96628.13
2023-04-12T07:14:30.109Z,96620.47
2023-04-12T07:18:32.110Z,96616.34
2023-04-12T07:22:34.093Z,96593.59
2023-04-12T07:26:36.313Z,96598.69
2023-04-12T07:30:41.402Z,96586.22
2023-04-12T07:34:43.548Z,96580.66
2023-04-12T07:38:45.898Z,96561.28
2023-04-12T07:42:47.881Z,96555.94
2023-04-12T07:46:50.053Z,96541.00
2023-04-12T07:50:52.372Z,96539.00
2023-04-12T07:54:55.053Z,96530.06
2023-04-12T07:58:57.331Z,96522.16
2023-04-12T08:03:00.217Z,96519.97
2023-04-12T08:07:02.329Z,96520.53
2023-04-12T08:11:06.264Z,96515.31
2023-04-12T08:15:09.236Z,96503.88
2023-04-12T08:19:11.867Z,96502.13
2023-04-12T08:23:13.881Z,96498.59
2023-04-12T08:27:16.508Z,96487.38
2023-04-12T08:31:19.282Z,96478.25
2023-04-12T08:35:22.495Z,96488.63
2023-04-12T08:39:24.541Z,96485.00
2023-04-12T08:43:29.067Z,96477.19
2023-04-12T08:47:32.878Z,96475.38
2023-04-12T08:51:37.207Z,96466.94
2023-04-12T08:55:39.262Z,96461.09
2023-04-12T08:59:43.623Z,96466.91
2023-04-12T09:03:46.800Z,96446.31
2023-04-12T09:07:49.030Z,96451.91
2023-04-12T09:11:51.036Z,96450.78
2023-04-12T09:15:53.138Z,96445.00
2023-04-12T09:19:56.311Z,96442.03
2023-04-12T09:24:11.752Z,96424.09
2023-04-12T09:28:26.095Z,96420.72
2023-04-12T09:32:28.331Z,96407.38
2023-04-12T09:36:38.544Z,96389.44
2023-04-12T09:40:40.643Z,96395.69
2023-04-12T09:44:42.702Z,96395.19
2023-04-12T09:48:52.773Z,96381.81
2023-04-12T09:52:56.408Z,96378.09
2023-04-12T09:56:58.601Z,96373.50
2023-04-12T10:01:02.635Z,96366.31
2023-04-12T10:05:06.124Z,96359.66
2023-04-12T10:09:08.954Z,96352.34
2023-04-12T10:13:12.814Z,96369.22
2023-04-12T10:17:15.042Z,96349.63
2023-04-12T10:21:17.319Z,96341.69
2023-04-12T10:25:25.592Z,96336.34
2023-04-12T10:29:30.816Z,96338.75
2023-04-12T10:33:32.969Z,96333.00
2023-04-12T10:38:03.440Z,96323.41
2023-04-12T10:42:18.467Z,96323.59
2023-04-12T10:46:39.074Z,96311.25
2023-04-12T10:50:41.837Z,96306.03
2023-04-12T10:54:43.968Z,96284.75
2023-04-12T10:58:50.666Z,96301.34
2023-04-12T11:03:12.000Z,96293.97
2023-04-12T11:07:14.703Z,96289.56
2023-04-12T11:11:41.489Z,96301.31
2023-04-12T11:15:43.858Z,96293.97
2023-04-12T11:19:58.285Z,96281.94
2023-04-12T11:24:00.381Z,96285.69
2023-04-12T11:28:03.181Z,96281.88
2023-04-12T11:32:12.295Z,96286.28
2023-04-12T11:36:14.460Z,96280.59
2023-04-12T11:40:16.798Z,96280.06
2023-04-12T11:44:19.483Z,96264.34
2023-04-12T11:48:21.562Z,96265.22
2023-04-12T11:52:31.595Z,96267.47
2023-04-12T11:56:33.842Z,96276.44
2023-04-12T12:00:36.265Z,96266.75
2023-04-12T12:04:40.797Z,96257.91
2023-04-12T12:08:43.407Z,96263.16
2023-04-12T12:12:45.435Z,96244.25
2023-04-12T12:16:58.533Z,96244.34
2023-04-12T12:21:01.253Z,96249.91
2023-04-12T12:25:03.557Z,96245.78
2023-04-12T12:29:05.942Z,96239.38
2023-04-12T12:33:08.192Z,96237.50
2023-04-12T12:37:13.271Z,96241.75
2023-04-12T12:41:23.411Z,96238.97
2023-04-12T12:45:27.315Z,96240.19
2023-04-12T12:49:29.320Z,96247.88
2023-04-12T12:53:31.361Z,96233.53
2023-04-12T12:57:35.647Z,96224.97
2023-04-12T13:01:37.739Z,96212.50
2023-04-12T13:05:39.808Z,96204.63
2023-04-12T13:09:41.814Z,96213.91
2023-04-12T13:13:43.802Z,96224.97
2023-04-12T13:17:45.911Z,96228.75
2023-04-12T13:21:48.998Z,96225.75
2023-04-12T13:25:53.070Z,96217.00
2023-04-12T13:29:57.981Z,96210.78
2023-04-12T13:34:00.179Z,96220.69
2023-04-12T13:38:02.290Z,96195.97
2023-04-12T13:42:04.422Z,96194.78
2023-04-12T13:46:07.156Z,96196.94
2023-04-12T13:50:09.703Z,96200.13
2023-04-12T13:54:11.744Z,96205.38
2023-04-12T13:58:14.233Z,96197.72
2023-04-12T14:02:16.397Z,96187.19
2023-04-12T14:06:18.520Z,96174.91
2023-04-12T14:10:20.560Z,96179.16
2023-04-12T14:14:22.932Z,96175.25
2023-04-12T14:18:25.128Z,96178.34
2023-04-12T14:22:27.100Z,96183.59
2023-04-12T14:26:29.253Z,96163.13
2023-04-12T14:30:31.411Z,96172.00
2023-04-12T14:34:34.307Z,96175.28
2023-04-12T14:38:36.349Z,96174.56
2023-04-12T14:42:38.543Z,96170.81
2023-04-12T14:46:40.711Z,96170.03
2023-04-12T14:50:42.742Z,96178.53
2023-04-12T14:54:44.722Z,96184.97
2023-04-12T14:58:46.858Z,96177.19
2023-04-12T15:02:49.900Z,96177.78
2023-04-12T15:06:52.151Z,96178.13
2023-04-12T15:10:54.179Z,96180.34
2023-04-12T15:14:57.513Z,96191.66
2023-04-12T15:19:04.101Z,96208.53
2023-04-12T15:23:08.567Z,96229.41
2023-04-12T15:27:10.660Z,96327.47
2023-04-12T15:31:13.637Z,96320.97
2023-04-12T15:35:26.076Z,96302.16
2023-04-12T15:39:28.916Z,96277.91
2023-04-12T15:43:30.993Z,96252.53
2023-04-12T15:47:33.062Z,96224.44
2023-04-12T15:51:38.292Z,96245.59
2023-04-12T15:55:43.811Z,96260.88
2023-04-12T15:59:45.828Z,96261.97
2023-04-12T16:03:49.198Z,96260.03
2023-04-12T16:07:51.646Z,96261.56
2023-04-12T16:11:53.652Z,96259.78
2023-04-12T16:15:55.994Z,96262.81
2023-04-12T16:19:58.887Z,96267.09
2023-04-12T16:24:00.960Z,96280.22
2023-04-12T16:28:03.383Z,96275.94
2023-04-12T16:32:07.338Z,96280.28
2023-04-12T16:36:09.542Z,96278.47
2023-04-12T16:40:14.719Z,96268.91
2023-04-12T16:44:18.740Z,96272.03
2023-04-12T16:48:22.804Z,96266.31
2023-04-12T16:52:24.959Z,96261.81
2023-04-12T16:56:27.030Z,96262.03
2023-04-12T17:00:29.204Z,96256.50
2023-04-12T17:04:31.494Z,96257.94
2023-04-12T17:08:33.636Z,96263.63
2023-04-12T17:12:35.723Z,96261.22
2023-04-12T17:16:38.104Z,96260.00
2023-04-12T17:20:40.885Z,96261.41
2023-04-12T17:24:43.376Z,96261.81
2023-04-12T17:28:45.858Z,96270.25
2023-04-12T17:32:48.450Z,96269.22
2023-04-12T17:36:50.602Z,96270.59
2023-04-12T17:40:52.626Z,96270.31
2023-04-12T17:44:54.632Z,96267.69
2023-04-12T17:48:58.149Z,96281.81
2023-04-12T17:53:01.722Z,96284.75
2023-04-12T17:57:04.710Z,96294.66
2023-04-12T18:01:06.759Z,96302.41
2023-04-12T18:05:09.344Z,96317.97
2023-04-12T18:09:12.716Z,96327.59
2023-04-12T18:13:14.726Z,96386.91
2023-04-12T18:17:16.760Z,96415.19
2023-04-12T18:21:21.682Z,96434.41
2023-04-12T18:25:23.881Z,96467.63
2023-04-12T18:29:26.412Z,96465.28
2023-04-12T18:33:30.228Z,96470.19
2023-04-12T18:37:32.405Z,96477.31
2023-04-12T18:41:34.489Z,96494.28
2023-04-12T18:45:40.433Z,96511.38
2023-04-12T18:49:42.554Z,96510.16
2023-04-12T18:53:44.628Z,96508.44
2023-04-12T18:57:48.980Z,96504.03
2023-04-12T19:01:51.466Z,96500.38
2023-04-12T19:05:57.963Z,96525.94
2023-04-12T19:09:59.978Z,96539.16
2023-04-12T19:14:02.171Z,96560.22
2023-04-12T19:18:04.676Z,96547.34
2023-04-12T19:22:06.751Z,96543.22
2023-04-12T19:26:08.829Z,96523.00
2023-04-12T19:30:12.878Z,96493.28
2023-04-12T19:34:17.656Z,96507.25
2023-04-12T19:38:21.111Z,96503.88
2023-04-12T19:42:23.528Z,96488.97
2023-04-12T19:46:26.156Z,96479.25
2023-04-12T19:50:30.857Z,96489.16
2023-04-12T19:54:33.468Z,96486.72
2023-04-12T19:58:35.646Z,96494.72
2023-04-12T20:02:38.057Z,96503.81
2023-04-12T20:06:41.435Z,96490.38
2023-04-12T20:10:43.504Z,96503.88
2023-04-12T20:14:45.850Z,96501.88
2023-04-12T20:18:47.877Z,96498.00
2023-04-12T20:22:52.887Z,96504.06
2023-04-12T20:26:54.908Z,96509.72
2023-04-12T20:30:57.731Z,96513.00
2023-04-12T20:35:00.008Z,96512.41
2023-04-12T20:39:02.545Z,96514.72
2023-04-12T20:43:05.965Z,96514.47
2023-04-12T20:47:07.987Z,96516.66
2023-04-12T20:51:16.429Z,96520.44
2023-04-12T20:55:18.489Z,96523.22
2023-04-12T20:59:23.943Z,96542.38
2023-04-12T21:03:27.479Z,96546.22
2023-04-12T21:07:29.953Z,96537.97
2023-04-12T21:11:32.202Z,96541.63
2023-04-12T21:15:35.350Z,96539.03
2023-04-12T21:19:41.687Z,96532.78
2023-04-12T21:23:43.808Z,96546.38
2023-04-12T21:27:47.089Z,96547.31
2023-04-12T21:31:49.190Z,96551.94
2023-04-12T21:35:54.728Z,96551.28
2023-04-12T21:39:57.018Z,96546.66
2023-04-12T21:43:59.055Z,96541.75
2023-04-12T21:48:01.333Z,96539.50
2023-04-12T21:52:03.816Z,96558.81
2023-04-12T21:56:06.469Z,96556.47
2023-04-12T22:00:09.863Z,96560.97
2023-04-12T22:04:14.737Z,96559.31
2023-04-12T22:08:16.944Z,96541.81
2023-04-12T22:12:18.964Z,96562.06
2023-04-12T22:16:22.965Z,96569.88
2023-04-12T22:20:28.304Z,96572.47
2023-04-12T22:24:30.559Z,96576.94
2023-04-12T22:28:32.627Z,96565.66
2023-04-12T22:32:34.731Z,96577.91
2023-04-12T22:36:42.203Z,96577.25
2023-04-12T22:40:46.812Z,96571.28
2023-04-12T22:44:49.762Z,96575.88
2023-04-12T22:48:51.962Z,96585.50
2023-04-12T22:52:54.414Z,96572.72
2023-04-12T22:56:56.417Z,96578.94
2023-04-12T23:00:58.873Z,96575.72
2023-04-12T23:05:02.516Z,96570.66
2023-04-12T23:09:06.438Z,96569.91
2023-04-12T23:13:09.398Z,96566.69
2023-04-12T23:17:11.402Z,96568.50
2023-04-12T23:21:13.734Z,96560.09
2023-04-12T23:25:15.765Z,96562.94
2023-04-12T23:29:17.743Z,96557.03
2023-04-12T23:33:21.106Z,96548.53
2023-04-12T23:37:23.112Z,96547.78
2023-04-12T23:41:25.751Z,96545.25
2023-04-12T23:45:27.949Z,96545.41
2023-04-12T23:49:29.969Z,96546.84
2023-04-12T23:53:32.209Z,96547.47
2023-04-12T23:57:34.526Z,96547.91
